Time;durP1;ratioP1;P1;durP2;ratioP2;P2;SDS_P1;SDS_P2;PMS_P1;PMS_P2;Temp;Humidity;BMP_temperature;BMP_pressure;BME280_temperature;BME280_humidity;BME280_pressure;Samples;Min_cycle;Max_cycle;Signal;HPM_P1;HPM_P2
2023/01/01 00:01:39;;;;;;;;;4.00;2.25;;;;;;;;5100423;27;65205;-77
2023/01/01 00:04:05;;;;;;;;;2.00;2.00;;;;;;;;5101366;27;61698;-77
2023/01/01 00:06:30;;;;;;;;;5.00;3.00;;;;;;;;5104248;27;61769;-77
2023/01/01 00:11:40;;;;;;;;;2.00;2.00;;;;;;;;5105540;27;61761;-77
2023/01/01 00:14:05;;;;;;;;;1.00;1.00;;;;;;;;5104558;27;61920;-77
2023/01/01 00:16:30;;;;;;;;;3.50;2.50;;;;;;;;5105537;27;62118;-77
2023/01/01 00:18:55;;;;;;;;;2.50;2.50;;;;;;;;5105833;27;61706;-77
2023/01/01 00:21:21;;;;;;;;;3.00;2.00;;;;;;;;5103976;27;64812;-77
2023/01/01 00:23:46;;;;;;;;;3.75;3.75;;;;;;;;5105722;27;61706;-77
2023/01/01 00:26:13;;;;;;;;;2.00;2.00;;;;;;;;5105997;27;61701;-77
2023/01/01 00:28:38;;;;;;;;;5.25;3.00;;;;;;;;5106001;27;62240;-77
2023/01/01 00:31:10;;;;;;;;;3.00;3.00;;;;;;;;5104945;27;63152;-77
2023/01/01 00:33:35;;;;;;;;;3.00;2.00;;;;;;;;5104326;27;61753;-77
2023/01/01 00:36:07;;;;;;;;;3.50;2.00;;;;;;;;5105680;27;61867;-77
2023/01/01 00:38:33;;;;;;;;;2.25;2.00;;;;;;;;5105614;27;61900;-77
2023/01/01 00:40:58;;;;;;;;;3.00;3.00;;;;;;;;5104984;27;62689;-77
2023/01/01 00:43:24;;;;;;;;;3.75;2.25;;;;;;;;5105641;27;61696;-77
2023/01/01 00:45:52;;;;;;;;;1.00;1.00;;;;;;;;5105184;27;62181;-77
2023/01/01 00:48:18;;;;;;;;;2.00;2.00;;;;;;;;5105743;27;61848;-77
2023/01/01 00:50:43;;;;;;;;;5.00;2.00;;;;;;;;5103370;27;64502;-77
2023/01/01 00:53:08;;;;;;;;;2.75;2.00;;;;;;;;5105092;27;61929;-77
2023/01/01 00:55:33;;;;;;;;;3.25;2.00;;;;;;;;5104033;27;62066;-77
2023/01/01 00:57:59;;;;;;;;;4.00;1.00;;;;;;;;5105389;27;62008;-77
2023/01/01 01:00:24;;;;;;;;;3.25;2.00;;;;;;;;5104624;27;62708;-76
2023/01/01 01:02:49;;;;;;;;;4.25;2.50;;;;;;;;5103852;27;61713;-77
2023/01/01 01:05:14;;;;;;;;;2.00;2.00;;;;;;;;5105338;27;61730;-77
2023/01/01 01:07:40;;;;;;;;;4.00;3.00;;;;;;;;5104105;27;61844;-77
2023/01/01 01:10:05;;;;;;;;;4.00;3.25;;;;;;;;5103290;27;63926;-77
2023/01/01 01:12:32;;;;;;;;;6.50;2.25;;;;;;;;5103631;27;61903;-77
2023/01/01 01:14:57;;;;;;;;;2.75;2.75;;;;;;;;5104965;27;61927;-77
2023/01/01 01:17:22;;;;;;;;;3.75;3.75;;;;;;;;5104689;27;61773;-77
2023/01/01 01:19:48;;;;;;;;;4.00;2.00;;;;;;;;5104240;27;61729;-77
2023/01/01 01:22:13;;;;;;;;;5.25;2.75;;;;;;;;5104828;27;62013;-77
2023/01/01 01:24:38;;;;;;;;;2.00;2.00;;;;;;;;5105209;27;61777;-77
2023/01/01 01:27:03;;;;;;;;;2.50;2.00;;;;;;;;5103686;27;61770;-77
2023/01/01 01:29:29;;;;;;;;;7.00;2.75;;;;;;;;5103993;27;62991;-77
2023/01/01 01:31:54;;;;;;;;;3.00;2.00;;;;;;;;5104758;27;61765;-77
2023/01/01 01:34:19;;;;;;;;;1.75;1.75;;;;;;;;5104833;27;61917;-77
2023/01/01 01:36:44;;;;;;;;;2.00;2.00;;;;;;;;5104726;27;62098;-77
2023/01/01 01:39:10;;;;;;;;;0.75;0.75;;;;;;;;5104154;27;62674;-77
2023/01/01 01:41:35;;;;;;;;;0.00;0.00;;;;;;;;5104593;27;61882;-77
2023/01/01 01:44:02;;;;;;;;;5.50;3.75;;;;;;;;5104611;27;62118;-77
2023/01/01 01:46:30;;;;;;;;;6.50;4.00;;;;;;;;5103167;27;61931;-77
2023/01/01 01:48:57;;;;;;;;;2.75;2.00;;;;;;;;5103595;27;61938;-77
2023/01/01 01:51:33;;;;;;;;;2.75;2.00;;;;;;;;5104300;27;61786;-77
2023/01/01 01:54:01;;;;;;;;;2.00;2.00;;;;;;;;5104527;27;62112;-77
2023/01/01 01:56:33;;;;;;;;;1.50;1.00;;;;;;;;5103052;27;62292;-77
2023/01/01 01:58:58;;;;;;;;;4.00;2.00;;;;;;;;5103760;27;62066;-77
2023/01/01 02:01:24;;;;;;;;;4.00;4.00;;;;;;;;5104011;27;61733;-77
2023/01/01 02:04:00;;;;;;;;;4.00;3.00;;;;;;;;5104500;27;61797;-77
2023/01/01 02:06:26;;;;;;;;;4.00;3.00;;;;;;;;5104141;27;61763;-77
2023/01/01 02:08:52;;;;;;;;;5.75;2.50;;;;;;;;5102378;27;62790;-77
2023/01/01 02:11:18;;;;;;;;;4.00;3.00;;;;;;;;5104363;27;61687;-77
2023/01/01 02:13:43;;;;;;;;;8.50;3.25;;;;;;;;5102958;27;61969;-77
2023/01/01 02:16:12;;;;;;;;;2.25;2.25;;;;;;;;5103810;27;61951;-77
2023/01/01 02:18:45;;;;;;;;;3.75;3.75;;;;;;;;5103057;27;62651;-76
2023/01/01 02:21:13;;;;;;;;;4.00;3.00;;;;;;;;5103789;27;61754;-77
2023/01/01 02:23:48;;;;;;;;;5.50;3.25;;;;;;;;5104069;27;62017;-77
2023/01/01 02:26:17;;;;;;;;;3.00;3.00;;;;;;;;5104179;27;61729;-77
2023/01/01 02:28:53;;;;;;;;;5.00;2.25;;;;;;;;5102533;27;61833;-77
2023/01/01 02:31:23;;;;;;;;;4.25;3.00;;;;;;;;5103408;27;61789;-77
2023/01/01 02:33:49;;;;;;;;;3.75;3.00;;;;;;;;5103673;27;61784;-77
2023/01/01 02:36:16;;;;;;;;;4.25;3.00;;;;;;;;5103928;27;61748;-77
2023/01/01 02:38:47;;;;;;;;;6.50;3.00;;;;;;;;5103197;27;61762;-77
2023/01/01 02:41:12;;;;;;;;;3.75;2.50;;;;;;;;5102092;27;61844;-77
2023/01/01 02:43:38;;;;;;;;;3.00;3.00;;;;;;;;5103703;27;61697;-77
2023/01/01 02:46:07;;;;;;;;;8.00;5.00;;;;;;;;5103400;27;62079;-77
2023/01/01 02:48:36;;;;;;;;;6.50;2.75;;;;;;;;5101371;27;64065;-77
2023/01/01 02:51:03;;;;;;;;;4.00;2.75;;;;;;;;5103466;27;62035;-77
2023/01/01 02:53:32;;;;;;;;;2.25;2.25;;;;;;;;5103515;27;61949;-77
2023/01/01 02:56:03;;;;;;;;;11.75;4.75;;;;;;;;5103462;27;62161;-76
2023/01/01 03:01:33;;;;;;;;;4.25;2.50;;;;;;;;5103012;27;62029;-77
2023/01/01 03:04:01;;;;;;;;;4.75;3.00;;;;;;;;5102337;27;61712;-76
2023/01/01 03:06:47;;;;;;;;;4.00;3.50;;;;;;;;5103405;27;61833;-77
2023/01/01 03:09:26;;;;;;;;;1.75;1.75;;;;;;;;5097220;27;61797;-76
2023/01/01 03:11:57;;;;;;;;;4.75;3.75;;;;;;;;5101839;27;61846;-77
2023/01/01 03:14:46;;;;;;;;;8.25;2.75;;;;;;;;5103255;27;61753;-76
2023/01/01 03:17:21;;;;;;;;;4.50;3.00;;;;;;;;5103502;27;61678;-77
2023/01/01 03:19:47;;;;;;;;;5.00;3.00;;;;;;;;5101076;27;62916;-76
2023/01/01 03:22:14;;;;;;;;;4.00;3.25;;;;;;;;5103021;27;61868;-77
2023/01/01 03:24:49;;;;;;;;;3.50;3.50;;;;;;;;5103376;27;62087;-77
2023/01/01 03:27:20;;;;;;;;;2.75;2.75;;;;;;;;5101892;27;62006;-76
2023/01/01 03:29:47;;;;;;;;;5.75;3.00;;;;;;;;5100625;27;63825;-77
2023/01/01 03:32:16;;;;;;;;;3.25;2.00;;;;;;;;5102751;27;61849;-77
2023/01/01 03:34:44;;;;;;;;;4.75;3.50;;;;;;;;5102955;27;61792;-77
2023/01/01 03:37:13;;;;;;;;;6.75;4.00;;;;;;;;5103121;27;61837;-77
2023/01/01 03:39:45;;;;;;;;;2.00;2.00;;;;;;;;5102274;27;61864;-76
2023/01/01 03:42:37;;;;;;;;;2.50;2.50;;;;;;;;5104313;27;62127;-77
2023/01/01 03:45:08;;;;;;;;;2.50;2.00;;;;;;;;5102474;27;61869;-77
2023/01/01 03:47:33;;;;;;;;;4.00;4.00;;;;;;;;5106278;27;61761;-77
2023/01/01 03:49:59;;;;;;;;;2.00;2.00;;;;;;;;5105643;27;62061;-77
2023/01/01 03:52:43;;;;;;;;;3.00;3.00;;;;;;;;5106487;27;61729;-77
2023/01/01 03:55:09;;;;;;;;;1.00;1.00;;;;;;;;5105104;27;61775;-77
2023/01/01 03:57:55;;;;;;;;;3.00;3.00;;;;;;;;5104824;27;62106;-77
2023/01/01 04:00:27;;;;;;;;;2.50;2.50;;;;;;;;5104268;27;63732;-77
2023/01/01 04:03:00;;;;;;;;;1.25;1.25;;;;;;;;5104603;27;61956;-77
2023/01/01 04:05:27;;;;;;;;;6.25;4.00;;;;;;;;5104841;27;61923;-77
2023/01/01 04:07:53;;;;;;;;;4.50;3.00;;;;;;;;5105170;27;61710;-77
2023/01/01 04:10:19;;;;;;;;;3.50;1.00;;;;;;;;5105521;27;62628;-77
2023/01/01 04:12:47;;;;;;;;;4.50;4.00;;;;;;;;5106097;27;61764;-77
2023/01/01 04:15:13;;;;;;;;;7.25;2.75;;;;;;;;5105995;27;61706;-77
2023/01/01 04:17:39;;;;;;;;;6.25;5.00;;;;;;;;5105710;27;61717;-77
2023/01/01 04:20:06;;;;;;;;;3.75;3.75;;;;;;;;5104887;27;62809;-77
2023/01/01 04:22:31;;;;;;;;;3.00;3.00;;;;;;;;5105925;27;62116;-77
2023/01/01 04:24:57;;;;;;;;;4.75;2.00;;;;;;;;5105935;27;61880;-77
2023/01/01 04:27:22;;;;;;;;;4.00;2.00;;;;;;;;5104669;27;62188;-77
2023/01/01 04:29:47;;;;;;;;;7.50;3.75;;;;;;;;5104776;27;61795;-77
2023/01/01 04:32:12;;;;;;;;;5.25;4.00;;;;;;;;5104047;27;62048;-77
2023/01/01 04:34:38;;;;;;;;;6.25;2.50;;;;;;;;5105906;27;61830;-77
2023/01/01 04:37:03;;;;;;;;;4.00;2.50;;;;;;;;5104517;27;61857;-77
2023/01/01 04:39:28;;;;;;;;;3.25;2.00;;;;;;;;5104850;27;61923;-77
2023/01/01 04:41:54;;;;;;;;;4.00;4.00;;;;;;;;5105707;27;61836;-77
2023/01/01 04:44:19;;;;;;;;;6.00;2.75;;;;;;;;5105276;27;61772;-76
2023/01/01 04:46:44;;;;;;;;;4.50;2.50;;;;;;;;5105594;27;62074;-77
2023/01/01 04:49:09;;;;;;;;;3.00;2.25;;;;;;;;5103192;27;63963;-77
2023/01/01 04:51:35;;;;;;;;;5.50;3.75;;;;;;;;5104981;27;62024;-77
2023/01/01 04:54:01;;;;;;;;;4.50;3.50;;;;;;;;5105731;27;62016;-77
2023/01/01 04:56:26;;;;;;;;;3.50;2.00;;;;;;;;5104083;27;61802;-77
2023/01/01 04:58:52;;;;;;;;;7.50;4.25;;;;;;;;5103236;27;63327;-77
2023/01/01 05:01:19;;;;;;;;;3.50;2.00;;;;;;;;5105013;27;61970;-77
2023/01/01 05:03:45;;;;;;;;;5.50;3.00;;;;;;;;5105446;27;61668;-77
2023/01/01 05:06:11;;;;;;;;;3.75;1.50;;;;;;;;5104115;27;62079;-77
2023/01/01 05:08:37;;;;;;;;;2.50;2.25;;;;;;;;5102401;27;63788;-77
2023/01/01 05:11:04;;;;;;;;;6.00;1.75;;;;;;;;5105142;27;61861;-77
2023/01/01 05:13:29;;;;;;;;;4.75;3.25;;;;;;;;5104778;27;61721;-77
2023/01/01 05:15:55;;;;;;;;;2.50;2.50;;;;;;;;5103600;27;61969;-77
2023/01/01 05:18:21;;;;;;;;;3.00;3.00;;;;;;;;5104310;27;61941;-77
2023/01/01 05:20:46;;;;;;;;;7.75;3.00;;;;;;;;5103484;27;62025;-77
2023/01/01 05:23:11;;;;;;;;;4.00;2.25;;;;;;;;5105269;27;61763;-77
2023/01/01 05:25:36;;;;;;;;;3.75;1.00;;;;;;;;5105262;27;61776;-77
2023/01/01 05:28:02;;;;;;;;;2.00;2.00;;;;;;;;5104089;27;61893;-76
2023/01/01 05:30:27;;;;;;;;;7.50;2.00;;;;;;;;5104586;27;62200;-77
2023/01/01 05:32:52;;;;;;;;;4.75;3.00;;;;;;;;5103673;27;62011;-77
2023/01/01 05:35:17;;;;;;;;;3.00;2.50;;;;;;;;5103679;27;61856;-77
2023/01/01 05:37:43;;;;;;;;;2.50;1.00;;;;;;;;5102646;27;63708;-77
2023/01/01 05:40:08;;;;;;;;;4.50;2.50;;;;;;;;5104853;27;61856;-77
2023/01/01 05:42:34;;;;;;;;;2.50;2.50;;;;;;;;5104475;27;62137;-77
2023/01/01 05:45:00;;;;;;;;;3.00;3.00;;;;;;;;5103175;27;62213;-77
2023/01/01 05:47:26;;;;;;;;;3.75;2.50;;;;;;;;5104129;27;62152;-77
2023/01/01 05:49:52;;;;;;;;;5.00;1.25;;;;;;;;5103097;27;61887;-76
2023/01/01 05:52:17;;;;;;;;;5.50;2.00;;;;;;;;5102995;27;61919;-77
2023/01/01 05:54:42;;;;;;;;;3.25;2.00;;;;;;;;5104853;27;61856;-77
2023/01/01 05:57:07;;;;;;;;;2.25;2.25;;;;;;;;5103777;27;61891;-77
2023/01/01 05:59:33;;;;;;;;;3.25;2.00;;;;;;;;5104163;27;61851;-77
2023/01/01 06:01:58;;;;;;;;;3.50;2.00;;;;;;;;5104262;27;61850;-77
2023/01/01 06:04:23;;;;;;;;;4.50;3.00;;;;;;;;5102216;27;62266;-77
2023/01/01 06:06:48;;;;;;;;;4.00;1.25;;;;;;;;5103213;27;61881;-77
2023/01/01 06:09:13;;;;;;;;;2.00;2.00;;;;;;;;5103877;27;61904;-77
2023/01/01 06:11:39;;;;;;;;;6.25;3.00;;;;;;;;5102639;27;61989;-76
2023/01/01 06:14:04;;;;;;;;;3.00;3.00;;;;;;;;5103041;27;62097;-77
2023/01/01 06:16:30;;;;;;;;;2.00;2.00;;;;;;;;5103157;27;61910;-77
2023/01/01 06:18:55;;;;;;;;;2.75;1.75;;;;;;;;5102629;27;61864;-77
2023/01/01 06:21:22;;;;;;;;;6.25;3.00;;;;;;;;5102970;27;61904;-77
2023/01/01 06:23:47;;;;;;;;;3.00;3.00;;;;;;;;5104368;27;61800;-77
2023/01/01 06:26:12;;;;;;;;;3.00;1.50;;;;;;;;5101669;27;64811;-77
2023/01/01 06:28:38;;;;;;;;;5.00;5.00;;;;;;;;5103863;27;61781;-77
2023/01/01 06:31:04;;;;;;;;;3.00;3.00;;;;;;;;5103675;27;61701;-77
2023/01/01 06:33:29;;;;;;;;;4.50;3.50;;;;;;;;5104129;27;61779;-77
2023/01/01 06:35:55;;;;;;;;;6.00;3.00;;;;;;;;5103268;27;61817;-77
2023/01/01 06:38:20;;;;;;;;;3.25;2.00;;;;;;;;5103443;27;61733;-77
2023/01/01 06:40:58;;;;;;;;;3.00;2.00;;;;;;;;5102204;27;61812;-77
2023/01/01 06:43:23;;;;;;;;;1.00;1.00;;;;;;;;5103937;27;61871;-77
2023/01/01 06:45:57;;;;;;;;;2.75;2.75;;;;;;;;5102858;27;62768;-77
2023/01/01 06:48:22;;;;;;;;;3.50;2.25;;;;;;;;5103698;27;61833;-77
2023/01/01 06:50:48;;;;;;;;;4.00;2.00;;;;;;;;5103466;27;61785;-77
2023/01/01 06:53:13;;;;;;;;;5.50;3.75;;;;;;;;5103966;27;61736;-77
2023/01/01 06:55:38;;;;;;;;;3.00;2.00;;;;;;;;5102602;27;62544;-77
2023/01/01 06:58:08;;;;;;;;;3.25;1.00;;;;;;;;5101918;27;61749;-77
2023/01/01 07:00:33;;;;;;;;;2.75;1.50;;;;;;;;5103466;27;62502;-77
2023/01/01 07:02:58;;;;;;;;;2.50;2.50;;;;;;;;5102250;27;61902;-77
2023/01/01 07:05:23;;;;;;;;;4.50;3.00;;;;;;;;5101491;27;63623;-77
2023/01/01 07:07:49;;;;;;;;;3.50;2.00;;;;;;;;5102354;27;61741;-77
2023/01/01 07:10:14;;;;;;;;;1.00;1.00;;;;;;;;5103288;27;61697;-77
2023/01/01 07:12:39;;;;;;;;;5.50;2.75;;;;;;;;5103577;27;61793;-77
2023/01/01 07:15:05;;;;;;;;;2.50;2.50;;;;;;;;5105032;27;62627;-77
2023/01/01 07:17:30;;;;;;;;;3.00;3.00;;;;;;;;5110002;27;61836;-77
2023/01/01 07:19:55;;;;;;;;;2.00;1.50;;;;;;;;5109695;27;61957;-77
2023/01/01 07:22:20;;;;;;;;;5.00;3.00;;;;;;;;5110377;27;61774;-77
2023/01/01 07:24:46;;;;;;;;;4.00;3.00;;;;;;;;5107565;27;63694;-77
2023/01/01 07:27:12;;;;;;;;;2.00;2.00;;;;;;;;5108730;27;61808;-77
2023/01/01 07:29:37;;;;;;;;;3.75;2.00;;;;;;;;5108321;27;61703;-77
2023/01/01 07:32:03;;;;;;;;;1.75;1.00;;;;;;;;5110057;27;62104;-77
2023/01/01 07:34:28;;;;;;;;;2.25;2.25;;;;;;;;5109538;27;62019;-77
2023/01/01 07:36:55;;;;;;;;;5.00;2.25;;;;;;;;5108521;27;61937;-77
2023/01/01 07:39:20;;;;;;;;;4.00;3.00;;;;;;;;5109671;27;61814;-77
2023/01/01 07:41:45;;;;;;;;;4.25;2.00;;;;;;;;5110085;27;61887;-77
2023/01/01 07:44:11;;;;;;;;;2.75;2.00;;;;;;;;5109225;27;62081;-77
2023/01/01 07:46:36;;;;;;;;;2.25;2.25;;;;;;;;5107867;27;61877;-77
2023/01/01 07:49:02;;;;;;;;;3.25;2.00;;;;;;;;5108139;27;62057;-77
2023/01/01 07:51:27;;;;;;;;;4.25;1.50;;;;;;;;5110096;27;61747;-77
2023/01/01 07:53:53;;;;;;;;;2.25;1.00;;;;;;;;5109018;27;61836;-77
2023/01/01 07:56:18;;;;;;;;;2.75;2.50;;;;;;;;5109794;27;61785;-77
2023/01/01 07:58:43;;;;;;;;;1.25;1.25;;;;;;;;5109333;27;61809;-77
2023/01/01 08:01:10;;;;;;;;;2.50;1.75;;;;;;;;5108230;27;61818;-77
2023/01/01 08:03:35;;;;;;;;;4.50;3.00;;;;;;;;5109041;27;61927;-77
2023/01/01 08:06:04;;;;;;;;;5.75;1.75;;;;;;;;5109355;27;61859;-77
2023/01/01 08:08:30;;;;;;;;;2.00;2.00;;;;;;;;5108450;27;61799;-77
2023/01/01 08:10:59;;;;;;;;;3.50;3.50;;;;;;;;5109596;27;62099;-77
2023/01/01 08:13:24;;;;;;;;;4.50;2.00;;;;;;;;5108784;27;61940;-77
2023/01/01 08:15:50;;;;;;;;;2.75;2.25;;;;;;;;5108909;27;62126;-77
2023/01/01 08:18:15;;;;;;;;;1.25;1.25;;;;;;;;5109343;27;61861;-77
2023/01/01 08:20:41;;;;;;;;;2.00;2.00;;;;;;;;5107847;27;61767;-77
2023/01/01 08:23:06;;;;;;;;;2.75;2.00;;;;;;;;5108599;27;61790;-77
2023/01/01 08:25:31;;;;;;;;;2.75;2.75;;;;;;;;5109487;27;62032;-77
2023/01/01 08:27:56;;;;;;;;;3.50;2.00;;;;;;;;5104076;27;62102;-77
2023/01/01 08:30:22;;;;;;;;;7.75;3.00;;;;;;;;5105993;27;61982;-76
2023/01/01 08:32:47;;;;;;;;;3.50;1.25;;;;;;;;5105197;27;61757;-77
2023/01/01 08:35:12;;;;;;;;;8.50;3.00;;;;;;;;5106056;27;61965;-76
2023/01/01 08:37:37;;;;;;;;;6.25;2.00;;;;;;;;5105501;27;62151;-77
2023/01/01 08:40:03;;;;;;;;;2.50;1.25;;;;;;;;5105855;27;61829;-77
2023/01/01 08:42:28;;;;;;;;;3.50;1.75;;;;;;;;5105298;27;61912;-76
2023/01/01 08:44:54;;;;;;;;;4.00;2.50;;;;;;;;5105265;27;62063;-77
2023/01/01 08:47:23;;;;;;;;;1.50;1.50;;;;;;;;5104271;27;61961;-77
2023/01/01 08:49:49;;;;;;;;;2.00;2.00;;;;;;;;5105647;27;62020;-77
2023/01/01 08:52:14;;;;;;;;;2.50;2.00;;;;;;;;5104811;27;62597;-77
2023/01/01 08:54:39;;;;;;;;;2.00;2.00;;;;;;;;5105591;27;61888;-77
2023/01/01 08:57:05;;;;;;;;;2.00;2.00;;;;;;;;5103997;27;61879;-77
2023/01/01 08:59:30;;;;;;;;;3.00;2.00;;;;;;;;5104132;27;61960;-77
2023/01/01 09:01:55;;;;;;;;;2.75;2.50;;;;;;;;5104405;27;61863;-77
2023/01/01 09:04:20;;;;;;;;;2.75;1.25;;;;;;;;5105322;27;61667;-77
2023/01/01 09:06:46;;;;;;;;;1.00;1.00;;;;;;;;5103505;27;62017;-77
2023/01/01 09:09:11;;;;;;;;;1.00;1.00;;;;;;;;5103414;27;61785;-77
2023/01/01 09:11:37;;;;;;;;;2.00;2.00;;;;;;;;5103176;27;64637;-77
2023/01/01 09:14:02;;;;;;;;;4.75;3.00;;;;;;;;5105007;27;61625;-76
2023/01/01 09:16:27;;;;;;;;;2.75;1.75;;;;;;;;5105179;27;62325;-77
2023/01/01 09:18:53;;;;;;;;;4.00;2.00;;;;;;;;5104860;27;61725;-77
2023/01/01 09:21:18;;;;;;;;;5.75;2.25;;;;;;;;5104414;27;61913;-77
2023/01/01 09:23:43;;;;;;;;;3.25;2.25;;;;;;;;5103688;27;61864;-77
2023/01/01 09:26:09;;;;;;;;;2.25;1.25;;;;;;;;5103743;27;61808;-77
2023/01/01 09:28:35;;;;;;;;;3.75;2.00;;;;;;;;5105195;27;61734;-77
2023/01/01 09:31:00;;;;;;;;;1.00;1.00;;;;;;;;5104016;27;61663;-76
2023/01/01 09:33:26;;;;;;;;;0.25;0.00;;;;;;;;5103625;27;61994;-77
2023/01/01 09:35:51;;;;;;;;;1.50;1.50;;;;;;;;5103283;27;61736;-77
2023/01/01 09:38:16;;;;;;;;;1.25;1.25;;;;;;;;5102199;27;61749;-77
2023/01/01 09:40:59;;;;;;;;;2.25;1.50;;;;;;;;5104302;27;61973;-77
2023/01/01 09:43:31;;;;;;;;;6.00;4.50;;;;;;;;5104938;27;62095;-77
2023/01/01 09:46:01;;;;;;;;;5.25;1.75;;;;;;;;5104153;27;62076;-77
2023/01/01 09:48:28;;;;;;;;;0.75;0.00;;;;;;;;5104553;27;61850;-77
2023/01/01 09:50:53;;;;;;;;;1.50;1.50;;;;;;;;5102163;27;63828;-77
2023/01/01 09:53:27;;;;;;;;;2.25;2.25;;;;;;;;5103213;27;62044;-77
2023/01/01 09:55:57;;;;;;;;;2.50;1.25;;;;;;;;5103053;27;61714;-77
2023/01/01 09:58:25;;;;;;;;;5.00;2.00;;;;;;;;5104267;27;61853;-77
2023/01/01 10:00:52;;;;;;;;;2.00;2.00;;;;;;;;5103614;27;61866;-77
2023/01/01 10:03:20;;;;;;;;;6.00;3.00;;;;;;;;5104468;27;61789;-77
2023/01/01 10:05:51;;;;;;;;;5.25;4.00;;;;;;;;5104532;27;61656;-77
2023/01/01 10:08:19;;;;;;;;;2.50;2.00;;;;;;;;5103629;27;61684;-77
2023/01/01 10:10:57;;;;;;;;;4.00;2.25;;;;;;;;5102201;27;63638;-77
2023/01/01 10:13:25;;;;;;;;;2.75;2.75;;;;;;;;5104155;27;62114;-77
2023/01/01 10:16:03;;;;;;;;;2.50;1.25;;;;;;;;5104073;27;61753;-77
2023/01/01 10:18:33;;;;;;;;;7.00;3.50;;;;;;;;5103902;27;61710;-77
2023/01/01 10:20:58;;;;;;;;;3.00;2.00;;;;;;;;5101820;27;64368;-77
2023/01/01 10:23:25;;;;;;;;;2.50;1.25;;;;;;;;5104095;27;61804;-77
2023/01/01 10:25:51;;;;;;;;;3.00;1.00;;;;;;;;5102617;27;61934;-77
2023/01/01 10:28:26;;;;;;;;;3.25;2.00;;;;;;;;5103834;27;61764;-77
2023/01/01 10:30:57;;;;;;;;;2.75;1.00;;;;;;;;5103199;27;61763;-77
2023/01/01 10:33:24;;;;;;;;;3.50;2.00;;;;;;;;5103692;27;62225;-77
2023/01/01 10:35:50;;;;;;;;;4.75;2.25;;;;;;;;5103898;27;61748;-77
2023/01/01 10:38:22;;;;;;;;;3.75;2.50;;;;;;;;5103822;27;61788;-77
2023/01/01 10:40:48;;;;;;;;;2.75;2.75;;;;;;;;5103324;27;61966;-77
2023/01/01 10:43:13;;;;;;;;;6.50;3.00;;;;;;;;5102403;27;61797;-77
2023/01/01 10:45:42;;;;;;;;;8.50;5.25;;;;;;;;5103516;27;61927;-78
2023/01/01 10:48:10;;;;;;;;;2.50;1.00;;;;;;;;5103549;27;61891;-77
2023/01/01 10:50:47;;;;;;;;;3.25;1.75;;;;;;;;5102357;27;61721;-77
2023/01/01 10:53:20;;;;;;;;;8.75;1.75;;;;;;;;5103486;27;61907;-77
2023/01/01 10:56:05;;;;;;;;;1.00;1.00;;;;;;;;5103615;27;61655;-77
2023/01/01 10:58:41;;;;;;;;;4.25;2.75;;;;;;;;5103436;27;61976;-77
2023/01/01 11:01:19;;;;;;;;;3.00;1.75;;;;;;;;5102464;27;62895;-77
2023/01/01 11:03:55;;;;;;;;;2.25;2.25;;;;;;;;5103187;27;61706;-77
2023/01/01 11:06:23;;;;;;;;;4.00;2.00;;;;;;;;5103280;27;62071;-77
2023/01/01 11:08:50;;;;;;;;;6.75;3.75;;;;;;;;5102858;27;61907;-77
2023/01/01 11:11:22;;;;;;;;;2.00;2.00;;;;;;;;5101389;27;64944;-77
2023/01/01 11:13:51;;;;;;;;;3.00;2.25;;;;;;;;5103162;27;61838;-77
2023/01/01 11:16:16;;;;;;;;;2.75;2.00;;;;;;;;5102628;27;61968;-78
2023/01/01 11:18:41;;;;;;;;;1.25;1.25;;;;;;;;5101703;27;61731;-77
2023/01/01 11:21:07;;;;;;;;;4.25;2.50;;;;;;;;5102585;27;61714;-77
2023/01/01 11:23:38;;;;;;;;;1.00;0.00;;;;;;;;5103285;27;61732;-77
2023/01/01 11:26:13;;;;;;;;;4.50;3.00;;;;;;;;5101960;27;61951;-77
2023/01/01 11:28:39;;;;;;;;;3.00;2.00;;;;;;;;5101634;27;61812;-77
2023/01/01 11:31:13;;;;;;;;;5.50;3.00;;;;;;;;5101870;27;61910;-77
2023/01/01 11:33:44;;;;;;;;;3.75;2.00;;;;;;;;5103100;27;61681;-77
2023/01/01 11:36:09;;;;;;;;;2.00;2.00;;;;;;;;5102943;27;61718;-77
2023/01/01 11:38:35;;;;;;;;;3.75;3.00;;;;;;;;5103054;27;61741;-77
2023/01/01 11:41:05;;;;;;;;;1.25;1.25;;;;;;;;5101180;27;63686;-77
2023/01/01 11:43:36;;;;;;;;;3.50;3.00;;;;;;;;5103028;27;61743;-77
2023/01/01 11:46:05;;;;;;;;;2.25;1.00;;;;;;;;5102367;27;61995;-77
2023/01/01 11:48:31;;;;;;;;;3.75;2.00;;;;;;;;5102838;27;62104;-77
2023/01/01 11:51:02;;;;;;;;;4.00;1.75;;;;;;;;5102128;27;63084;-77
2023/01/01 11:53:32;;;;;;;;;1.75;1.75;;;;;;;;5102721;27;61789;-77
2023/01/01 11:55:57;;;;;;;;;2.00;2.00;;;;;;;;5101707;27;61796;-78
2023/01/01 11:58:22;;;;;;;;;3.50;1.50;;;;;;;;5102310;27;61748;-77
2023/01/01 12:00:50;;;;;;;;;2.00;0.50;;;;;;;;5101651;27;61904;-77
2023/01/01 12:03:31;;;;;;;;;2.00;2.00;;;;;;;;5105807;27;62015;-77
2023/01/01 12:06:14;;;;;;;;;2.75;2.00;;;;;;;;5106364;27;61728;-77
2023/01/01 12:08:55;;;;;;;;;2.00;2.00;;;;;;;;5105752;27;61667;-77
2023/01/01 12:11:25;;;;;;;;;3.00;2.00;;;;;;;;5105683;27;61746;-77
2023/01/01 12:13:56;;;;;;;;;3.00;3.00;;;;;;;;5105974;27;61746;-77
2023/01/01 12:16:26;;;;;;;;;3.00;3.00;;;;;;;;5104448;27;62107;-77
2023/01/01 12:18:57;;;;;;;;;4.50;2.00;;;;;;;;5104550;27;62085;-77
2023/01/01 12:21:23;;;;;;;;;1.75;1.00;;;;;;;;5105299;27;62866;-77
2023/01/01 12:23:48;;;;;;;;;2.75;1.00;;;;;;;;5105905;27;62138;-78
2023/01/01 12:26:16;;;;;;;;;2.25;1.00;;;;;;;;5106142;27;61937;-77
2023/01/01 12:28:42;;;;;;;;;3.25;2.00;;;;;;;;5105937;27;61903;-77
2023/01/01 12:31:07;;;;;;;;;1.00;1.00;;;;;;;;5103701;27;63828;-77
2023/01/01 12:33:43;;;;;;;;;5.00;2.00;;;;;;;;5105731;27;61973;-78
2023/01/01 12:36:24;;;;;;;;;2.25;2.25;;;;;;;;5105848;27;61702;-77
2023/01/01 12:39:08;;;;;;;;;3.75;3.00;;;;;;;;5104502;27;61723;-77
2023/01/01 12:41:33;;;;;;;;;4.00;3.00;;;;;;;;5105134;27;61655;-77
2023/01/01 12:43:59;;;;;;;;;6.50;4.50;;;;;;;;5104018;27;61973;-77
2023/01/01 12:46:43;;;;;;;;;10.00;6.75;;;;;;;;5105385;27;61966;-77
2023/01/01 12:49:27;;;;;;;;;7.25;5.00;;;;;;;;5104114;27;62346;-77
2023/01/01 12:51:58;;;;;;;;;9.75;8.50;;;;;;;;5103717;27;63826;-77
2023/01/01 12:54:33;;;;;;;;;8.75;6.00;;;;;;;;5105115;27;61892;-77
2023/01/01 12:57:16;;;;;;;;;11.00;7.00;;;;;;;;5105439;27;61845;-77
2023/01/01 12:59:44;;;;;;;;;9.75;9.25;;;;;;;;5105349;27;61824;-77
2023/01/01 13:02:17;;;;;;;;;3.25;1.00;;;;;;;;5104328;27;62089;-77
2023/01/01 13:04:45;;;;;;;;;12.00;10.25;;;;;;;;5105264;27;61806;-77
2023/01/01 13:07:12;;;;;;;;;14.00;11.00;;;;;;;;5104879;27;62145;-77
2023/01/01 13:09:44;;;;;;;;;11.00;9.25;;;;;;;;5105321;27;61685;-77
2023/01/01 13:12:17;;;;;;;;;6.50;6.50;;;;;;;;5104563;27;61887;-77
2023/01/01 13:14:44;;;;;;;;;15.75;9.00;;;;;;;;5104839;27;61717;-77
2023/01/01 13:17:20;;;;;;;;;4.75;4.75;;;;;;;;5104799;27;62005;-77
2023/01/01 13:19:46;;;;;;;;;5.00;4.75;;;;;;;;5104906;27;61849;-77
2023/01/01 13:22:26;;;;;;;;;5.00;4.00;;;;;;;;5104407;27;62564;-77
2023/01/01 13:25:10;;;;;;;;;7.00;5.00;;;;;;;;5105001;27;61895;-77
2023/01/01 13:27:54;;;;;;;;;3.25;3.25;;;;;;;;5103471;27;62241;-77
2023/01/01 13:30:35;;;;;;;;;4.25;4.25;;;;;;;;5103546;27;62019;-77
2023/01/01 13:33:23;;;;;;;;;4.00;4.00;;;;;;;;5104318;27;61825;-77
2023/01/01 13:36:06;;;;;;;;;6.50;6.50;;;;;;;;5104747;27;61783;-77
2023/01/01 13:38:50;;;;;;;;;4.25;4.25;;;;;;;;5104675;27;61901;-77
2023/01/01 13:41:30;;;;;;;;;8.75;3.50;;;;;;;;5105101;27;61797;-77
2023/01/01 13:43:59;;;;;;;;;9.75;6.00;;;;;;;;5104127;27;61792;-77
2023/01/01 13:46:36;;;;;;;;;5.50;5.00;;;;;;;;5104512;27;62097;-77
2023/01/01 13:49:08;;;;;;;;;6.00;6.00;;;;;;;;5104568;27;61801;-77
2023/01/01 13:51:33;;;;;;;;;4.75;4.75;;;;;;;;5103317;27;61884;-77
2023/01/01 13:54:21;;;;;;;;;6.25;4.50;;;;;;;;5102845;27;63654;-77
2023/01/01 13:56:48;;;;;;;;;9.25;7.25;;;;;;;;5104196;27;61791;-77
2023/01/01 13:59:32;;;;;;;;;4.75;4.75;;;;;;;;5104278;27;61695;-77
2023/01/01 14:02:16;;;;;;;;;5.75;5.75;;;;;;;;5104476;27;61867;-77
2023/01/01 14:04:47;;;;;;;;;5.50;5.50;;;;;;;;5102576;27;63585;-77
2023/01/01 14:07:12;;;;;;;;;11.50;9.00;;;;;;;;5103506;27;61844;-77
2023/01/01 14:09:38;;;;;;;;;7.00;6.50;;;;;;;;5104157;27;61868;-77
2023/01/01 14:12:15;;;;;;;;;7.75;6.50;;;;;;;;5103167;27;61844;-77
2023/01/01 14:14:40;;;;;;;;;10.25;9.25;;;;;;;;5102324;27;63784;-77
2023/01/01 14:17:06;;;;;;;;;6.00;5.00;;;;;;;;5103576;27;62015;-77
2023/01/01 14:19:32;;;;;;;;;6.50;4.00;;;;;;;;5103881;27;61965;-77
2023/01/01 14:21:57;;;;;;;;;13.25;7.00;;;;;;;;5104555;27;62075;-77
2023/01/01 14:24:23;;;;;;;;;8.00;8.00;;;;;;;;5102317;27;63072;-77
2023/01/01 14:26:49;;;;;;;;;9.75;6.00;;;;;;;;5103957;27;61718;-77
2023/01/01 14:29:25;;;;;;;;;7.00;7.00;;;;;;;;5102693;27;61904;-77
2023/01/01 14:31:50;;;;;;;;;13.25;7.00;;;;;;;;5104052;27;62248;-77
2023/01/01 14:34:22;;;;;;;;;10.25;8.50;;;;;;;;5103304;27;63001;-77
2023/01/01 14:36:49;;;;;;;;;9.00;5.50;;;;;;;;5103730;27;61774;-77
2023/01/01 14:39:28;;;;;;;;;7.25;7.00;;;;;;;;5103711;27;61896;-77
2023/01/01 14:41:56;;;;;;;;;10.00;7.50;;;;;;;;5104123;27;61722;-77
2023/01/01 14:44:24;;;;;;;;;10.00;10.00;;;;;;;;5103150;27;62816;-77
2023/01/01 14:46:50;;;;;;;;;13.25;10.75;;;;;;;;5101871;27;62033;-77
2023/01/01 14:49:36;;;;;;;;;13.50;9.75;;;;;;;;5102303;27;61869;-77
2023/01/01 14:52:05;;;;;;;;;12.00;7.50;;;;;;;;5102606;27;62104;-77
2023/01/01 14:54:40;;;;;;;;;14.25;10.50;;;;;;;;5102764;27;61842;-77
2023/01/01 14:57:16;;;;;;;;;13.25;12.50;;;;;;;;5102047;27;61883;-77